Latest Coastal Weather Observations for Rowley Shoals

IDW60701

Issued at 4:13 am WST Thursday 23 November 2017 (issued every 10 minutes, with the page automatically refreshed every 10 minutes)

About coastal observations | Map of coastal stations | Coastal observations for WA | Marine services | Other Formats
Station Details ID: 200713 Name: ROWLEY SHOALS Lat: -17.52 Lon: 118.95 Height: 0.0 m
Data from the previous 72 hours. | See also: Recent months at Rowley Shoals
Date/Time
WST
Temp
°C
Wind Pressure Rain since
9am
mm
Weather Cloud Vis
km
Sea
Height
m
Swell
Dir  Spd
kts
Gust
kts
hPa Trend Height
m
Period
s
Dir
23/04:00am - WSW 12 14 1004.8 - - - - - - - - -
23/03:30am - WSW 14 16 1004.6 - - - - - - - - -
23/03:00am - W 12 14 1004.5 - - - - - - - - -
23/02:30am - WNW 14 16 1004.0 - - - - - - - - -
23/02:00am - NW 14 16 1003.8 - - - - - - - - -
23/01:30am - NW 16 19 1004.3 - - - - - - - - -
23/01:00am - NW 17 20 1004.1 - - - - - - - - -
23/12:30am - NW 18 21 1004.0 - - - - - - - - -
23/12:00am - NW 18 20 1004.0 - - - - - - - - -
 
Date/Time
WST
Temp
°C
Wind Pressure Rain since
9am
mm
Weather Cloud Vis
km
Sea
Height
m
Swell
Dir  Spd
kts
Gust
kts
hPa Trend Height
m
Period
s
Dir
22/11:30pm - NW 19 22 1004.5 - - - - - - - - -
22/11:00pm - NW 17 20 1004.7 - - - - - - - - -
22/10:30pm - NW 17 20 1005.3 - - - - - - - - -
22/10:00pm - NW 17 19 1005.1 - - - - - - - - -
22/09:30pm - NNW 16 19 1005.4 - - - - - - - - -
22/09:00pm - NW 14 15 1005.4 - - - - - - - - -
22/08:30pm - NW 13 14 1005.4 - - - - - - - - -
22/08:00pm - NW 11 13 1005.2 - - - - - - - - -
22/07:30pm - NW 13 14 1004.6 - - - - - - - - -
22/07:00pm - NW 14 16 1004.2 - - - - - - - - -
22/06:30pm - NW 15 17 1004.0 - - - - - - - - -
22/06:00pm - NW 14 16 1003.7 - - - - - - - - -
22/05:30pm - NW 14 15 1003.7 - - - - - - - - -
22/05:00pm - NW 11 13 1003.3 - - - - - - - - -
22/04:30pm - NW 8 9 1003.3 - - - - - - - - -
22/04:00pm - NW 7 9 1003.2 - - - - - - - - -
22/03:30pm - NW 8 10 1003.3 - - - - - - - - -
22/03:00pm - NW 6 8 1003.1 - - - - - - - - -
22/02:30pm - NW 7 8 1003.6 - - - - - - - - -
22/02:00pm - NNW 4 6 1003.8 - - - - - - - - -
22/01:30pm - N 3 4 1004.3 - - - - - - - - -
22/01:00pm - NNE 4 4 1004.4 - - - - - - - - -
22/12:30pm - NE 3 4 1005.0 - - - - - - - - -
22/12:00pm - ENE 4 5 1005.0 - - - - - - - - -
22/11:30am - S 3 4 1005.6 - - - - - - - - -
22/11:00am - SW 4 5 1005.7 - - - - - - - - -
22/10:30am - SW 7 8 1006.1 - - - - - - - - -
22/10:00am - SSW 6 7 1006.0 - - - - - - - - -
22/09:30am - SSW 8 10 1006.3 - - - - - - - - -
22/09:00am - SW 11 12 1006.2 - - - - - - - - -
22/08:30am - SW 11 13 1006.3 - - - - - - - - -
22/08:00am - SW 12 14 1006.2 - - - - - - - - -
22/07:30am - SW 13 14 1006.2 - - - - - - - - -
22/07:00am - SW 13 15 1005.9 - - - - - - - - -
22/06:30am - SW 14 17 1005.7 - - - - - - - - -
22/06:00am - SW 15 17 1005.4 - - - - - - - - -
22/05:30am - SW 16 18 1005.1 - - - - - - - - -
22/05:00am - WSW 15 19 1004.9 - - - - - - - - -
22/04:30am - W 17 19 1004.6 - - - - - - - - -
22/04:00am - WNW 18 21 1004.2 - - - - - - - - -
22/03:30am - WNW 18 20 1004.1 - - - - - - - - -
22/03:00am - WNW 17 20 1004.1 - - - - - - - - -
22/02:30am - WNW 16 19 1004.6 - - - - - - - - -
22/02:00am - WNW 15 17 1004.5 - - - - - - - - -
22/01:30am - WNW 15 18 1005.2 - - - - - - - - -
22/01:00am - WNW 14 17 1005.6 - - - - - - - - -
22/12:30am - WNW 13 15 1006.3 - - - - - - - - -
22/12:00am - WNW 13 15 1006.7 - - - - - - - - -
 
Date/Time
WST
Temp
°C
Wind Pressure Rain since
9am
mm
Weather Cloud Vis
km
Sea
Height
m
Swell
Dir  Spd
kts
Gust
kts
hPa Trend Height
m
Period
s
Dir
21/11:30pm - WNW 13 15 1007.1 - - - - - - - - -
21/11:00pm - NW 12 14 1007.1 - - - - - - - - -
21/10:30pm - WNW 12 13 1007.3 - - - - - - - - -
21/10:00pm - WNW 11 13 1007.4 - - - - - - - - -
21/09:30pm - NW 12 13 1007.6 - - - - - - - - -
21/09:00pm - NW 12 13 1007.4 - - - - - - - - -
21/08:30pm - NW 10 12 1007.5 - - - - - - - - -
21/08:00pm - WNW 8 10 1007.1 - - - - - - - - -
21/07:30pm - WNW 8 9 1006.8 - - - - - - - - -
21/07:00pm - WNW 8 9 1006.3 - - - - - - - - -
21/06:30pm - WNW 7 8 1005.8 - - - - - - - - -
21/06:00pm - NW 7 8 1005.4 - - - - - - - - -
21/05:30pm - NW 6 8 1005.1 - - - - - - - - -
21/05:00pm - NNW 7 7 1004.9 - - - - - - - - -
21/04:30pm - NNW 6 7 1005.2 - - - - - - - - -
21/04:00pm - NNW 4 5 1005.2 - - - - - - - - -
21/03:30pm - WNW 3 5 1005.3 - - - - - - - - -
21/03:00pm - WSW 3 4 1005.4 - - - - - - - - -
21/02:30pm - SSW 5 5 1005.7 - - - - - - - - -
21/02:00pm - SSW 5 6 1005.7 - - - - - - - - -
21/01:30pm - SSW 5 6 1006.1 - - - - - - - - -
21/01:00pm - SSW 6 7 1006.2 - - - - - - - - -
21/12:30pm - SSW 9 11 1006.5 - - - - - - - - -
21/12:00pm - SSW 11 13 1006.6 - - - - - - - - -
21/11:30am - SSW 11 13 1006.9 - - - - - - - - -
21/11:00am - SSW 10 13 1007.2 - - - - - - - - -
21/10:30am - SSW 11 13 1007.6 - - - - - - - - -
21/10:00am - SSW 11 12 1007.6 - - - - - - - - -
21/09:30am - SW 9 10 1007.9 - - - - - - - - -
21/09:00am - WSW 9 11 1007.7 - - - - - - - - -
21/08:30am - WSW 10 11 1008.0 - - - - - - - - -
21/08:00am - WSW 11 13 1008.0 - - - - - - - - -
21/07:30am - WSW 12 14 1008.1 - - - - - - - - -
21/07:00am - WSW 11 13 1008.1 - - - - - - - - -
21/06:30am - WSW 11 14 1008.0 - - - - - - - - -
21/06:00am - WSW 13 15 1007.6 - - - - - - - - -
21/05:30am - WSW 12 14 1007.3 - - - - - - - - -
21/05:00am - WSW 13 14 1006.7 - - - - - - - - -
21/04:30am - WSW 14 16 1006.6 - - - - - - - - -
21/04:00am - WSW 11 13 1006.5 - - - - - - - - -
21/03:30am - WSW 11 13 1006.7 - - - - - - - - -
21/03:00am - WSW 11 13 1006.6 - - - - - - - - -
21/02:30am - WSW 11 13 1006.8 - - - - - - - - -
21/02:00am - WSW 10 11 1006.8 - - - - - - - - -
21/01:30am - WSW 9 11 1007.1 - - - - - - - - -
21/01:00am - WSW 8 10 1007.3 - - - - - - - - -
21/12:30am - W 7 8 1007.8 - - - - - - - - -
21/12:00am - WSW 6 7 1008.0 - - - - - - - - -
 
Date/Time
WST
Temp
°C
Wind Pressure Rain since
9am
mm
Weather Cloud Vis
km
Sea
Height
m
Swell
Dir  Spd
kts
Gust
kts
hPa Trend Height
m
Period
s
Dir
20/11:30pm - WSW 6 7 1008.4 - - - - - - - - -
20/11:00pm - WSW 4 5 1008.6 - - - - - - - - -
20/10:30pm - SW 3 4 1009.0 - - - - - - - - -
20/10:00pm - SSW 3 4 1009.0 - - - - - - - - -
20/09:30pm - CALM 0 0 1008.9 - - - - - - - - -
20/09:00pm - CALM 0 0 1008.8 - - - - - - - - -
20/08:30pm - S 4 5 1008.6 - - - - - - - - -
20/08:00pm - S 3 4 1008.5 - - - - - - - - -
20/07:30pm - SSW 4 5 1008.2 - - - - - - - - -
20/07:00pm - S 5 7 1008.0 - - - - - - - - -
20/06:30pm - S 6 8 1007.8 - - - - - - - - -
20/06:00pm - S 7 10 1007.5 - - - - - - - - -
20/05:30pm - SSW 10 11 1007.2 - - - - - - - - -
20/05:00pm - SSW 10 12 1007.0 - - - - - - - - -
20/04:30pm - SSW 11 12 1007.0 - - - - - - - - -
20/04:00pm - SSW 9 10 1006.9 - - - - - - - - -
20/03:30pm - SSW 10 11 1007.0 - - - - - - - - -
20/03:00pm - SSW 10 11 1007.1 - - - - - - - - -
20/02:30pm - S 9 11 1007.4 - - - - - - - - -
20/02:00pm - S 9 11 1007.6 - - - - - - - - -
20/01:30pm - SSW 11 12 1008.2 - - - - - - - - -
20/01:00pm - SSW 9 10 1008.4 - - - - - - - - -
20/12:30pm - SSW 10 11 1008.9 - - - - - - - - -
20/12:00pm - SSW 11 13 1008.8 - - - - - - - - -
20/11:30am - SSW 12 13 1009.2 - - - - - - - - -
20/11:00am - SSW 12 14 1009.3 - - - - - - - - -
20/10:30am - SSW 12 14 1009.7 - - - - - - - - -
20/10:00am - SSW 12 14 1009.7 - - - - - - - - -
20/09:30am - SSW 12 15 1009.7 - - - - - - - - -
20/09:00am - SW 13 15 1009.4 - - - - - - - - -
20/08:30am - SW 13 15 1009.6 - - - - - - - - -
20/08:00am - SW 11 13 1009.7 - - - - - - - - -
20/07:30am - SSW 11 13 1009.8 - - - - - - - - -
20/07:00am - SW 12 14 1009.5 - - - - - - - - -
20/06:30am - SW 12 14 1009.3 - - - - - - - - -
20/06:00am - SW 14 16 1008.9 - - - - - - - - -
20/05:30am - SW 14 15 1008.7 - - - - - - - - -
20/05:00am - SW 14 16 1008.2 - - - - - - - - -
20/04:30am - SW 14 16 1008.1 - - - - - - - - -

Other Formats:

Comma delimited format used in spreadsheet applications
http://www.bom.gov.au/fwo/IDW60701/IDW60701.94207.axf

JavaScript Object Notation format (JSON) in row-major order
http://www.bom.gov.au/fwo/IDW60701/IDW60701.94207.json